Flight Track Log - Related Links

Times and Time Zones

All times are in EDT time to prevent confusion due to time zone crossing. See the SWA3853 flight status page for this flight to view local times or setup timezone preferences in your user account.

Time Position Orientation Groundspeed Altitude Reporting Facility
EDT Latitude Longitude Course Direction KTS MPH feet Rate Location/Type
Thu 11:00:56 AM 30.5153 -85.8006 353° North 296 341 9,900  Level Jacksonville Center
Thu 11:01:56 AM 30.6025 -85.8200 349° North 301 346 12,800 2,550 Climbing Jacksonville Center
Thu 11:02:56 AM 30.7008 -85.8039 North 331 381 15,000 1,100 Climbing Jacksonville Center
Thu 11:03:00 AM 30.7644 -85.8541 353° North  Level Estimated
Thu 11:03:56 AM 30.7994 -85.7897 North 338 389 15,000  Level Jacksonville Center
Thu 11:04:00 AM 30.8659 -85.8688 353° North  Level Estimated
Thu 11:04:56 AM 30.8997 -85.7808 North 351 404 15,600  Level Jacksonville Center
Thu 11:05:00 AM 30.9674 -85.8835 353° North  Level Estimated
Thu 11:05:56 AM 31.0025 -85.7647 North 356 410 18,800  Level Jacksonville Center
Thu 11:06:00 AM 31.0689 -85.8983 353° North  Level Estimated
Thu 11:06:56 AM 31.1175 -85.7561 North 362 417 22,100  Level Jacksonville Center
Thu 11:09:01 AM 31.3286 -85.8378 342° North 425 489 27,100 2,238 Climbing Atlanta Center
Thu 11:10:01 AM 31.4406 -85.8936 337° Northwest 425 489 29,000 1,900 Climbing Atlanta Center
Thu 11:11:01 AM 31.5522 -85.9542 335° Northwest 436 502 30,900 2,000 Climbing Atlanta Center
Thu 11:12:01 AM 31.6661 -86.0178 335° Northwest 442 509 33,000 1,550 Climbing Atlanta Center
Thu 11:13:01 AM 31.7819 -86.0789 336° Northwest 447 514 34,000 850 Climbing Atlanta Center
Thu 11:14:01 AM 31.8936 -86.1400 335° Northwest 447 514 34,700 1,250 Climbing Atlanta Center
Thu 11:15:01 AM 32.0094 -86.2064 334° Northwest 447 514 36,500 1,150 Climbing Atlanta Center
Thu 11:16:01 AM 32.1272 -86.2706 335° Northwest 447 514 37,000 250 Climbing Atlanta Center
Thu 11:17:01 AM 32.2597 -86.3231 341° North 453 521 37,000  Level Atlanta Center
Thu 11:18:01 AM 32.3828 -86.3311 357° North 448 516 37,000  Level Atlanta Center
Thu 11:19:01 AM 32.5142 -86.3394 357° North 453 521 37,000 900 Level Atlanta Center
Thu 11:20:01 AM 32.6392 -86.3453 358° North 459 528 38,800 1,000 Climbing Atlanta Center
Thu 11:21:01 AM 32.7581 -86.3508 358° North 441 507 39,000 100 Climbing Atlanta Center
Thu 11:22:01 AM 32.8792 -86.3564 358° North 435 501 39,000  Level Atlanta Center
Thu 11:23:01 AM 33.0000 -86.3622 358° North 430 495 39,000  Level Atlanta Center
Thu 11:24:01 AM 33.1167 -86.3750 355° North 430 495 39,000  Level Atlanta Center
Thu 11:25:01 AM 33.2397 -86.3758 360° North 425 489 39,000  Level Atlanta Center
Thu 11:26:01 AM 33.3567 -86.3817 358° North 420 483 39,000  Level Atlanta Center
Thu 11:27:01 AM 33.4753 -86.3947 355° North 420 483 39,000  Level Atlanta Center
Thu 11:28:01 AM 33.5714 -86.4000 357° North 420 483 39,000 -450 Level Atlanta Center
Thu 11:29:01 AM 33.6964 -86.4033 359° North 414 476 38,100 -900 Descending Atlanta Center
Thu 11:30:01 AM 33.8153 -86.4117 357° North 420 483 37,200 -550 Descending Atlanta Center
Thu 11:31:01 AM 33.9361 -86.4175 358° North 425 489 37,000 -200 Descending Atlanta Center
Thu 11:32:01 AM 34.0614 -86.4258 357° North 425 489 36,800 -550 Descending Atlanta Center
Thu 11:33:01 AM 34.1842 -86.4319 358° North 430 495 35,900 -900 Descending Atlanta Center
Thu 11:34:01 AM 34.3072 -86.4403 357° North 440 506 35,000 -650 Descending Atlanta Center
Thu 11:35:01 AM 34.4281 -86.4464 358° North 440 506 34,600 -850 Descending Atlanta Center
Thu 11:36:01 AM 34.5617 -86.4553 357° North 440 506 33,300 -1,041 Descending Atlanta Center
Thu 11:39:32 AM 34.9408 -86.3572 12° North 413 475 29,900 -1,196 Descending Memphis Center
Thu 11:40:32 AM 35.0342 -86.2792 34° Northeast 419 482 27,900 -2,000 Descending Memphis Center
Thu 11:41:32 AM 35.1256 -86.2011 35° Northeast 399 459 25,900 -1,934 Descending Memphis Center
Thu 11:42:33 AM 35.2147 -86.1281 34° Northeast 399 459 24,000 -1,900 Descending Memphis Center
Thu 11:43:32 AM 35.3000 -86.0575 34° Northeast 399 459 22,100 -1,866 Descending Memphis Center
Thu 11:44:32 AM 35.3850 -85.9869 34° Northeast 399 459 20,300 -1,600 Descending Memphis Center
Thu 11:45:32 AM 35.4753 -85.9414 22° Northeast 399 459 18,900 -1,350 Descending Memphis Center
Thu 11:46:32 AM 35.5689 -85.9364 North 399 459 17,600 -1,850 Descending Memphis Center
Thu 11:47:32 AM 35.6494 -86.0369 315° West 338 389 15,200 -2,100 Descending Memphis Center
Thu 11:48:32 AM 35.7153 -86.1306 311° West 348 400 13,400 -1,800 Descending Memphis Center
Thu 11:49:32 AM 35.7808 -86.2167 313° West 361 415 11,600 -1,700 Descending Memphis Center
Thu 11:50:32 AM 35.8442 -86.3033 312° West 341 392 10,000 -1,350 Descending Memphis Center
Thu 11:51:32 AM 35.8964 -86.3697 314° West 327 376 8,900 -1,300 Descending Memphis Center
Thu 11:52:32 AM 35.9531 -86.4467 312° West 310 357 7,400 -1,000 Descending Memphis Center
Thu 11:53:32 AM 36.0072 -86.5158 314° West 292 336 6,900 -198 Descending Memphis Center
Thu 11:54:33 AM 36.0506 -86.5703 315° West 248 285 7,000 -650 Climbing Memphis Center
Thu 11:55:32 AM 36.1108 -86.5597 North 188 216 5,600 -1,765 Descending Memphis Center
Thu 11:56:32 AM 36.1708 -86.5467 10° North 208 239 3,500 -1,850 Descending Memphis Center
Thu 11:57:32 AM 36.1917 -86.6100 292° West 179 206 1,900 -1,100 Descending Memphis Center
Thu 11:58:32 AM 36.1636 -86.6497 229° Southwest 139 160 1,300 -650 Descending Memphis Center
Thu 11:59:32 AM 36.1347 -86.6589 194° South 125 144 600 -700 Descending Memphis Center
Thu 12:03:00 PM 36.1245 -86.6782 237° Southwest  Level Estimated
Thu 12:10:00 PM 36.1245 -86.6782 302° West  Level Estimated
Thu 12:11:00 PM 36.1245 -86.6782 302° West  Level Estimated
Thu 12:12:00 PM 36.1245 -86.6782 302° West  Level Estimated

Login

Don't have an account? Register now (free) for customized features, flight alerts, and more!